Houston, Texas
Traffic Map
Current Weather Conditions
Houston, Texas
Clear
Clear
25°
Feels Like: 26°
Wind Chill: 25° Ceiling: Unl
Heat Index: 26° Visibility: 10mi
Dew Point: 11° Wind: 0mph
Humidity: 41% Direction: ° ()
Pressure: 30.09in Gusts: 0mph
Raw Report DataKMCJ 301755Z AUTO 00000KT 10SM CLR 25/11 A3009 RMK AO1
Traffic Incident Summary
Active as of:
Severity:
Category:
InformationThere was an issue retrieving the traffic information for this location. Please try a different location or try again shortly.
Advertisements
Track Severe Weather on mobile